航空気象通報

ウインドサーファーのための航空気象通報による風予報です。

9/15-9/17の航空気象通報

2017年09月15日 23時06分59秒 | TAF
羽田空港
TAF RJTT 151105Z 1512/1618 14010KT 9999 FEW020 BKN040
BECMG 1513/1515 07008KT
BECMG 1515/1517 04010KT
BECMG 1603/1606 09012KT
TEMPO 1609/1615 4000 SHRA BR FEW005 BKN008
TEMPO 1615/1618 3000 SHRA BR FEW003 BKN005
日本時間15日21-22時:140度から10ノットの風
22-24時:風が変化
16日00時:070度から8ノットの風
00-02時:風が変化
02-12時:040度から10ノットの風
12-15時:風が変化
15時-17日03時:090度から12ノットの風

但し、16日18時-17日03時の間:時々

静岡空港
TAF RJNS 151107Z 1512/1618 12005KT 9999 FEW030 SCT050
BECMG 1512/1514 02004KT
BECMG 1518/1520 03008KT
TEMPO 1609/1615 4000 SHRA BR FEW003 BKN005
日本時間15日21時:120度から5ノットの風
21-23時:風が変化
23時-16日03時:020度から4ノットの風
03-05時:風が変化
05時-17日03時:030度から8ノットの風

但し、16日18-24時の間:時々

福岡空港
TAF RJFF 151106Z 1512/1618 11010KT 7000 -SHRA FEW008 SCT010 BKN030
TEMPO 1518/1600 3000 SHRA BR
TEMPO 1600/1603 08015G25KT 3000 SHRA BR
TEMPO 1603/1609 08015G25KT
日本時間15日21時-17日03時:110度から10ノットの風
但し、16日09-18時の間:時々080度から15ノット、突風25ノット


那覇空港
TAF ROAH 151105Z 1512/1618 21024KT 9999 FEW015 BKN025
日本時間15日21時-17日03時:210度から24ノットの風


石垣空港
TAF ROIG 151107Z 1512/1618 28013KT 9999 FEW020 BKN035
日本時間15日21時-17日03時:280度から13ノットの風


マウイのカフルイ空港
PHOG 151213Z 1512/1612 13005KT P6SM FEW050
FM152000 05015G22KT P6SM SCT050
FM160500 05012KT P6SM FEW030 SCT050
ハワイ時間15日02-10時:130度から5ノットの風
10-19時:050度から15ノット、突風22ノット
19時-16日02時:050度から12ノットの風


サイパン空港
TAF PGSN 151131Z 1512/1612 07010KT P6SM VCSH FEW020 SCT120
FM151500 07010KT P6SM VCSH SCT020 BKN050 BKN120
マリアナ時間15日22時-16日01時:070度から10ノットの風

01-22時:070度から10ノットの風

ジャンル:
ウェブログ
コメント   この記事についてブログを書く
この記事をはてなブックマークに追加
« 9/13-9/15の航空気象通報 | トップ | 9/15-9/17の航空気象通報 »
最近の画像もっと見る

コメントを投稿

ブログ作成者から承認されるまでコメントは反映されません。

TAF」カテゴリの最新記事